Pagrindinis puslapis
METAR-TAF:

METAR-TAF

Oro uostai :

Maputu, Mozambikas

platuma: 25-55S, ilguma: 032-34E, Aukštis: 39 m

Dabartinis oras

Ataskaita buvo paskelbta 7 minutes, ne 06:00 UTC
Vėjas 6 kt iš Šiaurės Rytų
Temperatūra 23°C
Drėgmė 78%
Slėgis 1024 hPa
Matomumas 10 km arba daugiau
Su prošvaistėmis ne aukštis 2000 ft

METAR: FQMA 100600Z 04006KT 9999 BKN020 23/19 Q1024 NOSIG

Laikas: 08:07 (06:07 UTC)

Prognozė

Ataskaita buvo paskelbta 2 valandos ir 7 minutes, ne 04:00 UTC
Prognozė galioja nuo 10 metu 06 UTC su 11 metu 12 UTC
Vėjas 10 kt iš Šiaurės
Matomumas 10 km arba daugiau
Su prošvaistėmis ne aukštis 2000 ft
Tapsmas
nuo 10 metu 12 UTC su 10 metu 14 UTC
Vėjas 10 kt iš Šiaurės Rytų
Tapsmas
nuo 10 metu 18 UTC su 10 metu 20 UTC
Vėjas 10 kt iš Vakarų/Šiaurės Vakarų
Tapsmas
nuo 11 metu 06 UTC su 11 metu 08 UTC
Vėjas 10 kt iš Šiaurės

TAF: FQMA 100400Z 1006/1112 35010KT 9999 BKN020 TX27/1013Z TN20/1103Z BECMG 1012/1014 05010KT BECMG 1018/1020 30010KT BECMG 1106/1108 36010KT

Orai ataskaitas ir orų prognozės (METAR, TAF).

turimą stotys yra geltonos ir raudonos taškus žemėlapyje.

Perkelti pele per norėdami pamatyti stoties vardą.

Tada spustelėkite, norėdami matyti oro stebėjimo ir prognozės.

Norėdami pakeisti žemėlapį: spustelėkite ant žalios mygtukų su juodo kryžiaus žemyn,; žalią mygtuką su brūkšneliu, jei norite nutolinti; arba žalių rodyklių gretimoms žemėlapius.


METAR-TAF: